createdAt,value
2019-03-11T00:00:57.601Z,-73
2019-03-11T00:01:57.508Z,-73
2019-03-11T00:02:57.607Z,-73
2019-03-11T00:03:57.477Z,-73
2019-03-11T00:04:57.609Z,-73
2019-03-11T00:05:57.479Z,-73
2019-03-11T00:06:57.640Z,-73
2019-03-11T00:07:57.482Z,-73
2019-03-11T00:08:57.609Z,-73
2019-03-11T00:09:57.484Z,-73
2019-03-11T00:10:57.615Z,-74
2019-03-11T00:11:57.507Z,-75
2019-03-11T00:12:57.613Z,-74
2019-03-11T00:13:57.484Z,-74
2019-03-11T00:14:57.616Z,-74
2019-03-11T00:15:57.485Z,-75
2019-03-11T00:16:57.642Z,-74
2019-03-11T00:17:57.494Z,-75
2019-03-11T00:18:57.624Z,-74
2019-03-11T00:19:57.491Z,-75
2019-03-11T00:20:57.619Z,-73
2019-03-11T00:21:57.515Z,-74
2019-03-11T00:22:57.619Z,-75
2019-03-11T00:23:57.495Z,-75
2019-03-11T00:24:57.626Z,-75
2019-03-11T00:25:57.494Z,-75
2019-03-11T00:26:57.652Z,-75
2019-03-11T00:27:57.508Z,-75
2019-03-11T00:28:57.627Z,-74
2019-03-11T00:29:57.498Z,-75
2019-03-11T00:30:57.633Z,-75
2019-03-11T00:31:57.525Z,-74
2019-03-11T00:32:57.635Z,-74
2019-03-11T00:33:57.502Z,-75
2019-03-11T00:34:57.629Z,-77
2019-03-11T00:35:57.503Z,-77
2019-03-11T00:36:57.663Z,-77
2019-03-11T00:37:57.514Z,-77
2019-03-11T00:38:57.638Z,-76
2019-03-11T00:39:57.510Z,-77
2019-03-11T00:40:57.637Z,-77
2019-03-11T00:41:57.532Z,-77
2019-03-11T00:42:57.686Z,-77
2019-03-11T00:43:57.508Z,-77
2019-03-11T00:44:57.646Z,-77
2019-03-11T00:45:57.510Z,-77
2019-03-11T00:46:57.686Z,-77
2019-03-11T00:48:01.739Z,-75
2019-03-11T00:48:57.650Z,-74
2019-03-11T00:49:57.515Z,-74
2019-03-11T00:50:57.644Z,-74
2019-03-11T00:51:57.515Z,-74
2019-03-11T00:52:57.677Z,-74
2019-03-11T00:53:57.522Z,-74
2019-03-11T00:54:57.646Z,-74
2019-03-11T00:55:57.519Z,-74
2019-03-11T00:56:57.656Z,-74
2019-03-11T00:57:57.608Z,-74
2019-03-11T00:58:57.678Z,-74
2019-03-11T00:59:57.521Z,-74
2019-03-11T01:00:57.652Z,-74
2019-03-11T01:01:57.523Z,-74
2019-03-11T01:02:57.679Z,-74
2019-03-11T01:03:57.527Z,-74
2019-03-11T01:04:57.660Z,-74
2019-03-11T01:05:57.527Z,-76
2019-03-11T01:06:57.690Z,-75
2019-03-11T01:07:57.554Z,-75
2019-03-11T01:08:57.660Z,-75
2019-03-11T01:09:57.532Z,-76
2019-03-11T01:10:57.662Z,-76
2019-03-11T01:11:57.534Z,-76
2019-03-11T01:12:57.691Z,-76
2019-03-11T01:13:57.533Z,-76
2019-03-11T01:14:57.669Z,-76
2019-03-11T01:15:57.536Z,-76
2019-03-11T01:16:57.667Z,-76
2019-03-11T01:17:57.557Z,-76
2019-03-11T01:18:57.671Z,-77
2019-03-11T01:19:57.539Z,-76
2019-03-11T01:20:57.670Z,-76
2019-03-11T01:21:57.540Z,-76
2019-03-11T01:22:57.726Z,-76
2019-03-11T01:23:57.544Z,-76
2019-03-11T01:24:57.673Z,-76
2019-03-11T01:25:57.542Z,-76
2019-03-11T01:26:57.674Z,-76
2019-03-11T01:27:57.571Z,-75
2019-03-11T01:28:57.676Z,-76
2019-03-11T01:29:57.547Z,-76
2019-03-11T01:30:57.684Z,-76
2019-03-11T01:31:57.547Z,-76
2019-03-11T01:32:57.705Z,-76
2019-03-11T01:33:57.549Z,-76
2019-03-11T01:34:57.680Z,-76
2019-03-11T01:35:57.551Z,-75
2019-03-11T01:36:57.686Z,-76
2019-03-11T01:37:57.578Z,-76
2019-03-11T01:38:57.684Z,-75
2019-03-11T01:39:57.556Z,-75
2019-03-11T01:40:57.687Z,-75
2019-03-11T01:41:57.554Z,-76
2019-03-11T01:42:57.725Z,-75
2019-03-11T01:43:57.557Z,-75
2019-03-11T01:44:57.688Z,-75
2019-03-11T01:45:57.557Z,-75
2019-03-11T01:46:57.696Z,-75
2019-03-11T01:47:57.562Z,-77
2019-03-11T01:48:57.721Z,-76
2019-03-11T01:49:57.564Z,-76
2019-03-11T01:50:57.699Z,-76
2019-03-11T01:51:57.666Z,-76
2019-03-11T01:52:57.714Z,-76
2019-03-11T01:53:57.591Z,-76
2019-03-11T01:54:57.699Z,-76
2019-03-11T01:55:57.569Z,-76
2019-03-11T01:56:57.704Z,-76
2019-03-11T01:57:57.570Z,-76
2019-03-11T01:58:57.726Z,-74
2019-03-11T01:59:57.568Z,-75
2019-03-11T02:00:57.703Z,-75
2019-03-11T02:01:57.578Z,-75
2019-03-11T02:02:57.704Z,-73
2019-03-11T02:03:57.599Z,-73
2019-03-11T02:04:57.705Z,-72
2019-03-11T02:05:57.577Z,-72
2019-03-11T02:06:57.707Z,-73
2019-03-11T02:07:57.581Z,-72
2019-03-11T02:08:57.749Z,-72
2019-03-11T02:09:57.635Z,-72
2019-03-11T02:10:57.725Z,-73
2019-03-11T02:11:57.627Z,-72
2019-03-11T02:12:57.711Z,-73
2019-03-11T02:13:57.609Z,-72
2019-03-11T02:14:57.714Z,-72
2019-03-11T02:15:57.581Z,-72
2019-03-11T02:16:57.716Z,-73
2019-03-11T02:17:57.584Z,-73
2019-03-11T02:18:57.739Z,-72
2019-03-11T02:19:57.586Z,-73
2019-03-11T02:20:57.720Z,-73
2019-03-11T02:21:57.590Z,-72
2019-03-11T02:22:57.727Z,-72
2019-03-11T02:23:57.616Z,-72
2019-03-11T02:24:57.730Z,-72
2019-03-11T02:25:57.599Z,-73
2019-03-11T02:26:57.727Z,-72
2019-03-11T02:27:57.592Z,-72
2019-03-11T02:29:00.847Z,-71
2019-03-11T02:29:57.592Z,-72
2019-03-11T02:30:57.737Z,-71
2019-03-11T02:31:57.597Z,-72
2019-03-11T02:32:57.736Z,-72
2019-03-11T02:33:57.627Z,-72
2019-03-11T02:34:57.746Z,-72
2019-03-11T02:35:57.604Z,-72
2019-03-11T02:36:57.746Z,-72
2019-03-11T02:37:57.603Z,-71
2019-03-11T02:38:57.760Z,-71
2019-03-11T02:39:57.605Z,-71
2019-03-11T02:40:57.738Z,-72
2019-03-11T02:41:57.606Z,-72
2019-03-11T02:42:57.753Z,-71
2019-03-11T02:43:57.640Z,-72
2019-03-11T02:44:57.745Z,-72
2019-03-11T02:45:57.609Z,-72
2019-03-11T02:46:57.753Z,-72
2019-03-11T02:47:57.617Z,-72
2019-03-11T02:48:57.867Z,-72
2019-03-11T02:49:57.611Z,-73
2019-03-11T02:50:57.761Z,-71
2019-03-11T02:51:57.614Z,-72
2019-03-11T02:52:57.746Z,-72
2019-03-11T02:53:57.616Z,-72
2019-03-11T02:54:57.781Z,-71
2019-03-11T02:55:57.618Z,-71
2019-03-11T02:56:57.756Z,-73
2019-03-11T02:57:57.621Z,-73
2019-03-11T02:58:57.747Z,-73
2019-03-11T02:59:57.645Z,-72
2019-03-11T03:00:57.759Z,-73
2019-03-11T03:01:57.621Z,-72
2019-03-11T03:02:57.762Z,-72
2019-03-11T03:03:57.622Z,-72
2019-03-11T03:04:57.785Z,-72
2019-03-11T03:05:57.624Z,-72
2019-03-11T03:06:57.765Z,-71
2019-03-11T03:07:57.627Z,-72
2019-03-11T03:08:57.767Z,-72
2019-03-11T03:09:57.651Z,-72
2019-03-11T03:10:57.765Z,-72
2019-03-11T03:11:57.631Z,-73
2019-03-11T03:12:57.767Z,-72
2019-03-11T03:13:57.633Z,-72
2019-03-11T03:14:57.794Z,-73
2019-03-11T03:15:57.634Z,-72
2019-03-11T03:16:57.764Z,-73
2019-03-11T03:17:57.792Z,-73
2019-03-11T03:18:57.771Z,-73
2019-03-11T03:19:57.660Z,-73
2019-03-11T03:20:57.767Z,-73
2019-03-11T03:21:57.646Z,-73
2019-03-11T03:22:57.779Z,-72
2019-03-11T03:23:57.645Z,-72
2019-03-11T03:24:57.821Z,-72
2019-03-11T03:25:57.645Z,-72
2019-03-11T03:26:57.770Z,-72
2019-03-11T03:27:57.795Z,-73
2019-03-11T03:28:57.795Z,-72
2019-03-11T03:29:57.680Z,-72
2019-03-11T03:30:57.785Z,-72
2019-03-11T03:31:57.646Z,-72
2019-03-11T03:32:57.842Z,-72
2019-03-11T03:33:57.650Z,-72
2019-03-11T03:34:57.783Z,-73
2019-03-11T03:35:57.691Z,-73
2019-03-11T03:36:57.775Z,-73
2019-03-11T03:37:57.651Z,-73
2019-03-11T03:38:57.793Z,-73
2019-03-11T03:39:57.652Z,-73
2019-03-11T03:40:57.822Z,-73
2019-03-11T03:41:57.655Z,-73
2019-03-11T03:42:58.100Z,-73
2019-03-11T03:43:57.655Z,-73
2019-03-11T03:44:57.796Z,-73
2019-03-11T03:45:57.683Z,-73
2019-03-11T03:46:57.788Z,-73
2019-03-11T03:47:57.661Z,-73
2019-03-11T03:48:57.791Z,-73
2019-03-11T03:49:57.661Z,-74
2019-03-11T03:50:57.829Z,-74
2019-03-11T03:51:57.669Z,-74
2019-03-11T03:52:57.793Z,-74
2019-03-11T03:53:57.675Z,-74
2019-03-11T03:54:57.809Z,-74
2019-03-11T03:55:57.691Z,-74
2019-03-11T03:56:57.826Z,-74
2019-03-11T03:57:57.723Z,-74
2019-03-11T03:58:57.809Z,-71
2019-03-11T03:59:57.670Z,-72
2019-03-11T04:00:57.832Z,-72
2019-03-11T04:01:57.668Z,-73
2019-03-11T04:02:57.818Z,-72
2019-03-11T04:03:57.692Z,-72
2019-03-11T04:04:57.808Z,-72
2019-03-11T04:05:57.703Z,-72
2019-03-11T04:06:57.807Z,-71
2019-03-11T04:07:57.677Z,-72
2019-03-11T04:08:57.805Z,-71
2019-03-11T04:09:57.674Z,-72
2019-03-11T04:10:57.851Z,-72
2019-03-11T04:11:57.680Z,-74
2019-03-11T04:12:57.817Z,-74
2019-03-11T04:13:57.680Z,-72
2019-03-11T04:14:57.815Z,-72
2019-03-11T04:15:57.706Z,-72
2019-03-11T04:16:57.820Z,-72
2019-03-11T04:17:57.685Z,-72
2019-03-11T04:18:57.820Z,-72
2019-03-11T04:19:57.777Z,-72
2019-03-11T04:20:57.854Z,-71
2019-03-11T04:21:57.687Z,-72
2019-03-11T04:22:57.818Z,-72
2019-03-11T04:23:57.688Z,-72
2019-03-11T04:24:57.826Z,-72
2019-03-11T04:25:57.715Z,-72
2019-03-11T04:26:57.826Z,-71
2019-03-11T04:27:57.687Z,-71
2019-03-11T04:28:57.838Z,-71
2019-03-11T04:29:57.693Z,-71
2019-03-11T04:30:57.857Z,-71
2019-03-11T04:31:57.694Z,-71
2019-03-11T04:32:57.832Z,-71
2019-03-11T04:33:57.696Z,-72
2019-03-11T04:34:57.832Z,-71
2019-03-11T04:35:57.723Z,-72
2019-03-11T04:36:57.830Z,-72
2019-03-11T04:37:57.699Z,-72
2019-03-11T04:38:57.836Z,-72
2019-03-11T04:39:57.698Z,-72
2019-03-11T04:40:58.201Z,-71
2019-03-11T04:41:57.702Z,-74
2019-03-11T04:42:57.839Z,-74
2019-03-11T04:43:57.703Z,-74
2019-03-11T04:44:57.837Z,-74
2019-03-11T04:45:57.703Z,-73
2019-03-11T04:46:57.864Z,-73
2019-03-11T04:47:57.707Z,-74
2019-03-11T04:48:57.838Z,-73
2019-03-11T04:50:00.105Z,-73
2019-03-11T04:50:57.840Z,-73
2019-03-11T04:51:57.734Z,-73
2019-03-11T04:52:57.844Z,-74
2019-03-11T04:53:57.712Z,-71
2019-03-11T04:54:57.842Z,-71
2019-03-11T04:55:57.720Z,-71
2019-03-11T04:56:57.869Z,-72
2019-03-11T04:57:57.714Z,-73
2019-03-11T04:58:57.851Z,-72
2019-03-11T04:59:57.716Z,-72
2019-03-11T05:00:57.846Z,-72
2019-03-11T05:01:57.745Z,-73
2019-03-11T05:02:57.871Z,-73
2019-03-11T05:03:57.720Z,-72
2019-03-11T05:04:57.847Z,-73
2019-03-11T05:05:57.722Z,-72
2019-03-11T05:06:57.889Z,-72
2019-03-11T05:07:57.745Z,-72
2019-03-11T05:08:57.854Z,-72
2019-03-11T05:09:57.725Z,-72
2019-03-11T05:10:57.860Z,-72
2019-03-11T05:11:57.752Z,-73
2019-03-11T05:12:57.869Z,-72
2019-03-11T05:13:57.729Z,-72
2019-03-11T05:14:57.866Z,-72
2019-03-11T05:15:57.726Z,-72
2019-03-11T05:16:57.892Z,-71
2019-03-11T05:17:57.729Z,-72
2019-03-11T05:18:57.875Z,-71
2019-03-11T05:19:57.744Z,-72
2019-03-11T05:20:57.860Z,-71
2019-03-11T05:21:57.760Z,-71
2019-03-11T05:22:57.869Z,-72
2019-03-11T05:23:57.735Z,-72
2019-03-11T05:24:57.870Z,-72
2019-03-11T05:25:57.735Z,-72
2019-03-11T05:26:57.895Z,-73
2019-03-11T05:27:57.747Z,-72
2019-03-11T05:28:57.865Z,-72
2019-03-11T05:29:57.739Z,-72
2019-03-11T05:30:57.873Z,-72
2019-03-11T05:31:57.765Z,-71
2019-03-11T05:32:57.872Z,-71
2019-03-11T05:33:57.743Z,-71
2019-03-11T05:34:57.874Z,-70
2019-03-11T05:35:57.746Z,-71
2019-03-11T05:36:57.951Z,-70
2019-03-11T05:37:57.747Z,-70
2019-03-11T05:38:57.884Z,-70
2019-03-11T05:39:57.745Z,-70
2019-03-11T05:40:57.952Z,-70
2019-03-11T05:41:57.750Z,-71
2019-03-11T05:42:57.919Z,-70
2019-03-11T05:43:57.751Z,-70
2019-03-11T05:44:57.888Z,-70
2019-03-11T05:45:57.752Z,-70
2019-03-11T05:46:57.894Z,-70
2019-03-11T05:47:57.788Z,-71
2019-03-11T05:48:57.888Z,-70
2019-03-11T05:49:57.755Z,-70
2019-03-11T05:50:57.894Z,-70
2019-03-11T05:51:57.759Z,-70
2019-03-11T05:52:57.914Z,-70
2019-03-11T05:53:57.760Z,-70
2019-03-11T05:54:57.894Z,-71
2019-03-11T05:55:57.851Z,-71
2019-03-11T05:56:59.339Z,-71
2019-03-11T05:57:57.787Z,-71
2019-03-11T05:58:57.906Z,-70
2019-03-11T05:59:57.765Z,-71
2019-03-11T06:00:57.899Z,-70
2019-03-11T06:01:57.766Z,-71
2019-03-11T06:02:57.927Z,-70
2019-03-11T06:03:57.766Z,-70
2019-03-11T06:04:57.903Z,-70
2019-03-11T06:05:57.768Z,-70
2019-03-11T06:06:57.903Z,-70
2019-03-11T06:07:57.794Z,-70
2019-03-11T06:08:57.908Z,-70
2019-03-11T06:09:57.772Z,-70
2019-03-11T06:10:57.909Z,-70
2019-03-11T06:11:57.773Z,-70
2019-03-11T06:12:57.930Z,-70
2019-03-11T06:13:57.778Z,-70
2019-03-11T06:14:57.913Z,-70
2019-03-11T06:15:57.780Z,-70
2019-03-11T06:16:57.909Z,-70
2019-03-11T06:17:57.801Z,-70
2019-03-11T06:18:57.911Z,-70
2019-03-11T06:19:57.783Z,-70
2019-03-11T06:20:57.912Z,-70
2019-03-11T06:21:57.791Z,-70
2019-03-11T06:22:57.948Z,-70
2019-03-11T06:23:57.787Z,-70
2019-03-11T06:24:57.917Z,-70
2019-03-11T06:25:57.783Z,-71
2019-03-11T06:26:57.923Z,-70
2019-03-11T06:27:57.810Z,-71
2019-03-11T06:28:57.922Z,-70
2019-03-11T06:29:57.789Z,-70
2019-03-11T06:30:57.919Z,-70
2019-03-11T06:31:57.789Z,-70
2019-03-11T06:32:57.936Z,-70
2019-03-11T06:33:57.816Z,-70
2019-03-11T06:34:57.925Z,-69
2019-03-11T06:35:57.793Z,-71
2019-03-11T06:36:57.924Z,-70
2019-03-11T06:37:57.795Z,-70
2019-03-11T06:39:06.384Z,-70
2019-03-11T06:39:57.799Z,-71
2019-03-11T06:40:57.930Z,-70
2019-03-11T06:41:57.797Z,-70
2019-03-11T06:42:57.931Z,-70
2019-03-11T06:43:57.824Z,-70
2019-03-11T06:44:57.932Z,-70
2019-03-11T06:45:57.814Z,-70
2019-03-11T06:46:57.942Z,-70
2019-03-11T06:47:57.805Z,-70
2019-03-11T06:48:57.963Z,-69
2019-03-11T06:49:57.804Z,-70
2019-03-11T06:50:57.939Z,-70
2019-03-11T06:51:57.805Z,-70
2019-03-11T06:52:57.939Z,-71
2019-03-11T06:53:57.832Z,-70
2019-03-11T06:54:57.940Z,-70
2019-03-11T06:55:57.808Z,-70
2019-03-11T06:56:57.947Z,-70
2019-03-11T06:57:57.820Z,-70
2019-03-11T06:58:57.973Z,-70
2019-03-11T06:59:57.811Z,-70
2019-03-11T07:00:57.953Z,-70
2019-03-11T07:01:57.902Z,-70
2019-03-11T07:02:57.946Z,-70
2019-03-11T07:03:57.840Z,-70
2019-03-11T07:04:57.956Z,-70
2019-03-11T07:05:57.821Z,-70
2019-03-11T07:06:57.951Z,-70
2019-03-11T07:07:57.817Z,-70
2019-03-11T07:08:57.987Z,-70
2019-03-11T07:09:57.820Z,-70
2019-03-11T07:10:57.992Z,-70
2019-03-11T07:11:57.825Z,-71
2019-03-11T07:12:57.964Z,-70
2019-03-11T07:13:57.848Z,-70
2019-03-11T07:14:57.989Z,-70
2019-03-11T07:15:57.895Z,-70
2019-03-11T07:16:57.994Z,-70
2019-03-11T07:17:57.841Z,-71
2019-03-11T07:18:57.986Z,-70
2019-03-11T07:19:57.829Z,-70
2019-03-11T07:20:57.958Z,-70
2019-03-11T07:21:57.830Z,-70
2019-03-11T07:22:57.971Z,-70
2019-03-11T07:23:57.856Z,-70
2019-03-11T07:24:57.971Z,-70
2019-03-11T07:25:57.832Z,-72
2019-03-11T07:26:57.974Z,-70
2019-03-11T07:27:57.834Z,-71
2019-03-11T07:28:57.968Z,-70
2019-03-11T07:29:57.864Z,-70
2019-03-11T07:30:58.514Z,-70
2019-03-11T07:31:57.888Z,-70
2019-03-11T07:32:57.974Z,-70
2019-03-11T07:33:57.840Z,-70
2019-03-11T07:35:09.051Z,-70
2019-03-11T07:35:57.840Z,-70
2019-03-11T07:36:57.993Z,-70
2019-03-11T07:37:57.845Z,-70
2019-03-11T07:38:57.980Z,-70
2019-03-11T07:39:57.866Z,-70
2019-03-11T07:40:57.974Z,-70
2019-03-11T07:41:57.845Z,-70
2019-03-11T07:42:57.979Z,-70
2019-03-11T07:43:57.845Z,-70
2019-03-11T07:44:58.020Z,-69
2019-03-11T07:45:57.849Z,-70
2019-03-11T07:46:57.996Z,-70
2019-03-11T07:47:57.856Z,-71
2019-03-11T07:48:57.981Z,-70
2019-03-11T07:49:57.877Z,-70
2019-03-11T07:50:57.987Z,-70
2019-03-11T07:51:57.856Z,-70
2019-03-11T07:52:57.987Z,-70
2019-03-11T07:53:57.855Z,-70
2019-03-11T07:54:58.013Z,-70
2019-03-11T07:55:57.856Z,-71
2019-03-11T07:56:57.991Z,-70
2019-03-11T07:57:57.861Z,-70
2019-03-11T07:58:57.994Z,-70
2019-03-11T07:59:57.887Z,-70
2019-03-11T08:00:58.264Z,-70
2019-03-11T08:01:57.862Z,-71
2019-03-11T08:02:57.995Z,-70
2019-03-11T08:03:57.865Z,-71
2019-03-11T08:04:58.017Z,-70
2019-03-11T08:05:58.148Z,-70
2019-03-11T08:06:57.999Z,-70
2019-03-11T08:07:57.918Z,-70
2019-03-11T08:08:58.000Z,-70
2019-03-11T08:09:57.895Z,-70
2019-03-11T08:10:58.571Z,-69
2019-03-11T08:11:57.870Z,-70
2019-03-11T08:12:58.011Z,-70
2019-03-11T08:13:57.871Z,-70
2019-03-11T08:14:58.036Z,-70
2019-03-11T08:15:57.936Z,-70
2019-03-11T08:16:58.006Z,-70
2019-03-11T08:17:57.878Z,-71
2019-03-11T08:18:58.004Z,-70
2019-03-11T08:19:57.902Z,-70
2019-03-11T08:20:58.012Z,-70
2019-03-11T08:21:57.877Z,-70
2019-03-11T08:22:58.012Z,-70
2019-03-11T08:23:57.879Z,-70
2019-03-11T08:24:58.033Z,-70
2019-03-11T08:25:57.879Z,-70
2019-03-11T08:26:58.015Z,-70
2019-03-11T08:27:57.882Z,-70
2019-03-11T08:28:58.015Z,-70
2019-03-11T08:29:59.517Z,-70
2019-03-11T08:30:58.050Z,-70
2019-03-11T08:31:57.884Z,-71
2019-03-11T08:32:58.022Z,-70
2019-03-11T08:33:57.890Z,-70
2019-03-11T08:34:58.041Z,-70
2019-03-11T08:35:57.890Z,-70
2019-03-11T08:36:58.021Z,-70
2019-03-11T08:37:57.919Z,-70
2019-03-11T08:38:59.542Z,-70
2019-03-11T08:39:57.917Z,-70
2019-03-11T08:40:58.096Z,-70
2019-03-11T08:41:57.895Z,-70
2019-03-11T08:42:58.033Z,-70
2019-03-11T08:43:57.897Z,-70
2019-03-11T08:44:58.061Z,-70
2019-03-11T08:45:57.897Z,-71
2019-03-11T08:46:58.031Z,-70
2019-03-11T08:47:57.901Z,-70
2019-03-11T08:48:58.029Z,-70
2019-03-11T08:49:57.903Z,-70
2019-03-11T08:50:58.075Z,-70
2019-03-11T08:51:57.902Z,-70
2019-03-11T08:52:58.042Z,-70
2019-03-11T08:53:57.903Z,-70
2019-03-11T08:54:58.042Z,-70
2019-03-11T08:55:57.932Z,-70
2019-03-11T08:56:58.046Z,-70
2019-03-11T08:57:57.908Z,-70
2019-03-11T08:58:58.035Z,-70
2019-03-11T08:59:57.907Z,-70
2019-03-11T09:00:58.075Z,-70
2019-03-11T09:01:57.912Z,-70
2019-03-11T09:02:58.041Z,-70
2019-03-11T09:03:57.913Z,-70
2019-03-11T09:04:58.046Z,-70
2019-03-11T09:05:57.939Z,-70
2019-03-11T09:06:58.049Z,-70
2019-03-11T09:07:57.914Z,-71
2019-03-11T09:08:58.066Z,-70
2019-03-11T09:09:57.917Z,-70
2019-03-11T09:10:58.080Z,-70
2019-03-11T09:11:57.917Z,-70
2019-03-11T09:12:58.047Z,-70
2019-03-11T09:13:57.919Z,-70
2019-03-11T09:14:58.055Z,-70
2019-03-11T09:15:57.948Z,-70
2019-03-11T09:16:58.051Z,-70
2019-03-11T09:17:58.189Z,-70
2019-03-11T09:18:58.055Z,-70
2019-03-11T09:19:57.939Z,-70
2019-03-11T09:20:58.077Z,-70
2019-03-11T09:21:57.925Z,-70
2019-03-11T09:22:58.065Z,-70
2019-03-11T09:23:57.925Z,-71
2019-03-11T09:24:58.059Z,-70
2019-03-11T09:25:57.954Z,-70
2019-03-11T09:26:58.090Z,-70
2019-03-11T09:27:57.935Z,-70
2019-03-11T09:28:58.064Z,-70
2019-03-11T09:29:57.935Z,-70
2019-03-11T09:30:58.093Z,-70
2019-03-11T09:31:57.932Z,-70
2019-03-11T09:32:58.067Z,-70
2019-03-11T09:33:58.286Z,-70
2019-03-11T09:34:58.068Z,-70
2019-03-11T09:35:57.960Z,-70
2019-03-11T09:36:58.071Z,-70
2019-03-11T09:37:57.938Z,-70
2019-03-11T09:38:58.073Z,-70
2019-03-11T09:40:00.298Z,-71
2019-03-11T09:40:58.103Z,-70
2019-03-11T09:41:58.133Z,-70
2019-03-11T09:42:58.084Z,-70
2019-03-11T09:43:57.943Z,-70
2019-03-11T09:44:58.080Z,-70
2019-03-11T09:45:57.970Z,-70
2019-03-11T09:46:58.083Z,-70
2019-03-11T09:47:57.948Z,-70
2019-03-11T09:48:58.081Z,-70
2019-03-11T09:49:57.954Z,-70
2019-03-11T09:50:59.519Z,-70
2019-03-11T09:51:58.678Z,-71
2019-03-11T09:52:58.087Z,-70
2019-03-11T09:53:57.979Z,-70
2019-03-11T09:54:58.087Z,-70
2019-03-11T09:55:57.997Z,-70
2019-03-11T09:56:58.089Z,-70
2019-03-11T09:57:57.958Z,-70
2019-03-11T09:58:58.098Z,-70
2019-03-11T09:59:57.958Z,-71
2019-03-11T10:00:58.091Z,-70
2019-03-11T10:01:57.983Z,-70
2019-03-11T10:02:58.095Z,-70
2019-03-11T10:03:57.958Z,-71
2019-03-11T10:04:58.097Z,-70
2019-03-11T10:05:57.962Z,-70
2019-03-11T10:06:58.125Z,-70
2019-03-11T10:07:58.022Z,-71
2019-03-11T10:08:58.098Z,-70
2019-03-11T10:09:57.976Z,-70
2019-03-11T10:10:58.098Z,-70
2019-03-11T10:11:57.991Z,-70
2019-03-11T10:12:58.144Z,-70
2019-03-11T10:13:57.971Z,-70
2019-03-11T10:14:58.104Z,-70
2019-03-11T10:15:57.971Z,-70
2019-03-11T10:16:58.123Z,-70
2019-03-11T10:17:57.969Z,-70
2019-03-11T10:18:58.125Z,-70
2019-03-11T10:19:57.974Z,-70
2019-03-11T10:20:58.105Z,-70
2019-03-11T10:21:58.004Z,-70
2019-03-11T10:22:58.113Z,-70
2019-03-11T10:23:59.246Z,-70
2019-03-11T10:24:58.117Z,-70
2019-03-11T10:25:57.978Z,-70
2019-03-11T10:26:58.132Z,-70
2019-03-11T10:27:57.977Z,-70
2019-03-11T10:28:58.112Z,-70
2019-03-11T10:29:57.980Z,-70
2019-03-11T10:30:58.119Z,-70
2019-03-11T10:31:58.012Z,-71
2019-03-11T10:32:58.115Z,-70
2019-03-11T10:33:58.039Z,-69
2019-03-11T10:34:58.117Z,-70
2019-03-11T10:35:57.991Z,-70
2019-03-11T10:36:58.143Z,-70
2019-03-11T10:37:57.987Z,-70
2019-03-11T10:38:58.120Z,-70
2019-03-11T10:39:57.989Z,-70
2019-03-11T10:40:58.121Z,-72
2019-03-11T10:41:58.038Z,-71
2019-03-11T10:42:58.122Z,-71
2019-03-11T10:43:57.995Z,-72
2019-03-11T10:44:58.124Z,-72
2019-03-11T10:45:57.992Z,-71
2019-03-11T10:46:58.129Z,-72
2019-03-11T10:47:58.025Z,-71
2019-03-11T10:48:58.122Z,-72
2019-03-11T10:49:57.998Z,-72
2019-03-11T10:50:58.321Z,-71
2019-03-11T10:51:57.999Z,-71
2019-03-11T10:52:58.161Z,-71
2019-03-11T10:53:58.001Z,-72
2019-03-11T10:54:58.145Z,-72
2019-03-11T10:55:59.887Z,-71
2019-03-11T10:56:58.141Z,-71
2019-03-11T10:57:58.026Z,-71
2019-03-11T10:58:58.136Z,-71
2019-03-11T10:59:58.005Z,-71
2019-03-11T11:00:58.142Z,-71
2019-03-11T11:01:58.009Z,-72
2019-03-11T11:02:58.166Z,-71
2019-03-11T11:03:58.009Z,-71
2019-03-11T11:04:58.149Z,-71
2019-03-11T11:05:58.010Z,-72
2019-03-11T11:06:58.144Z,-71
2019-03-11T11:07:58.036Z,-71
2019-03-11T11:08:58.141Z,-71
2019-03-11T11:09:58.011Z,-71
2019-03-11T11:10:58.145Z,-71
2019-03-11T11:11:58.015Z,-71
2019-03-11T11:12:58.179Z,-71
2019-03-11T11:13:58.017Z,-71
2019-03-11T11:14:58.157Z,-71
2019-03-11T11:15:58.017Z,-71
2019-03-11T11:16:58.165Z,-71
2019-03-11T11:17:58.042Z,-71
2019-03-11T11:18:58.153Z,-71
2019-03-11T11:20:03.078Z,-71
2019-03-11T11:20:58.164Z,-71
2019-03-11T11:21:58.023Z,-71
2019-03-11T11:22:58.178Z,-71
2019-03-11T11:23:58.028Z,-71
2019-03-11T11:24:58.154Z,-71
2019-03-11T11:25:58.027Z,-71
2019-03-11T11:26:58.169Z,-71
2019-03-11T11:27:58.061Z,-71
2019-03-11T11:28:58.158Z,-71
2019-03-11T11:29:58.030Z,-71
2019-03-11T11:30:58.163Z,-72
2019-03-11T11:31:58.098Z,-72
2019-03-11T11:32:58.191Z,-71
2019-03-11T11:33:58.039Z,-71
2019-03-11T11:34:58.165Z,-71
2019-03-11T11:35:58.033Z,-72
2019-03-11T11:36:58.167Z,-72
2019-03-11T11:37:58.061Z,-71
2019-03-11T11:38:58.169Z,-71
2019-03-11T11:39:58.041Z,-71
2019-03-11T11:40:58.181Z,-71
2019-03-11T11:41:58.039Z,-72
2019-03-11T11:42:58.218Z,-71
2019-03-11T11:43:58.041Z,-72
2019-03-11T11:44:58.171Z,-71
2019-03-11T11:45:58.040Z,-72
2019-03-11T11:46:58.173Z,-72
2019-03-11T11:47:58.045Z,-72
2019-03-11T11:48:58.395Z,-71
2019-03-11T11:49:58.049Z,-71
2019-03-11T11:50:58.179Z,-72
2019-03-11T11:51:58.048Z,-71
2019-03-11T11:52:59.340Z,-72
2019-03-11T11:53:58.072Z,-71
2019-03-11T11:54:58.181Z,-72
2019-03-11T11:55:58.309Z,-70
2019-03-11T11:56:58.184Z,-71
2019-03-11T11:57:58.057Z,-71
2019-03-11T11:58:58.209Z,-71
2019-03-11T11:59:58.061Z,-71
2019-03-11T12:00:58.186Z,-71
2019-03-11T12:02:03.494Z,-72
2019-03-11T12:02:58.184Z,-72
2019-03-11T12:03:58.233Z,-72
2019-03-11T12:04:58.194Z,-72
2019-03-11T12:05:58.081Z,-72
2019-03-11T12:06:58.577Z,-71
2019-03-11T12:07:58.099Z,-71
2019-03-11T12:08:58.435Z,-72
2019-03-11T12:09:58.092Z,-72
2019-03-11T12:10:58.198Z,-72
2019-03-11T12:11:58.206Z,-71
2019-03-11T12:12:58.832Z,-71
2019-03-11T12:13:58.199Z,-72
2019-03-11T12:14:58.201Z,-72
2019-03-11T12:15:58.071Z,-72
2019-03-11T12:16:58.377Z,-72
2019-03-11T12:17:58.069Z,-72
2019-03-11T12:18:58.224Z,-72
2019-03-11T12:19:58.074Z,-72
2019-03-11T12:20:58.239Z,-72
2019-03-11T12:21:58.069Z,-72
2019-03-11T12:22:58.203Z,-72
2019-03-11T12:23:58.098Z,-72
2019-03-11T12:24:58.217Z,-72
2019-03-11T12:25:58.074Z,-72
2019-03-11T12:26:58.212Z,-72
2019-03-11T12:27:58.524Z,-72
2019-03-11T12:28:58.234Z,-72
2019-03-11T12:29:58.077Z,-72
2019-03-11T12:30:58.204Z,-72
2019-03-11T12:31:58.080Z,-72
2019-03-11T12:32:58.213Z,-72
2019-03-11T12:33:58.105Z,-72
2019-03-11T12:34:58.215Z,-72
2019-03-11T12:35:58.084Z,-72
2019-03-11T12:36:58.220Z,-72
2019-03-11T12:37:58.088Z,-72
2019-03-11T12:38:58.239Z,-72
2019-03-11T12:39:58.089Z,-72
2019-03-11T12:40:58.224Z,-72
2019-03-11T12:41:58.087Z,-72
2019-03-11T12:42:58.223Z,-72
2019-03-11T12:43:58.111Z,-72
2019-03-11T12:44:58.218Z,-72
2019-03-11T12:45:58.090Z,-72
2019-03-11T12:46:58.230Z,-72
2019-03-11T12:47:58.094Z,-72
2019-03-11T12:48:58.261Z,-72
2019-03-11T12:49:58.094Z,-72
2019-03-11T12:50:58.239Z,-72
2019-03-11T12:51:58.100Z,-72
2019-03-11T12:52:58.232Z,-72
2019-03-11T12:53:58.097Z,-72
2019-03-11T12:54:58.254Z,-72
2019-03-11T12:55:58.120Z,-72
2019-03-11T12:56:58.230Z,-72
2019-03-11T12:57:58.210Z,-72
2019-03-11T12:58:58.266Z,-72
2019-03-11T12:59:58.294Z,-71
2019-03-11T13:00:58.289Z,-72
2019-03-11T13:01:58.251Z,-72
2019-03-11T13:02:58.418Z,-71
2019-03-11T13:03:58.268Z,-72
2019-03-11T13:04:58.665Z,-72
2019-03-11T13:05:58.303Z,-72
2019-03-11T13:06:58.395Z,-72
2019-03-11T13:07:58.119Z,-72
2019-03-11T13:08:58.508Z,-72
2019-03-11T13:09:58.382Z,-72
2019-03-11T13:10:58.493Z,-72
2019-03-11T13:11:58.245Z,-72
2019-03-11T13:12:58.463Z,-72
2019-03-11T13:13:58.202Z,-71
2019-03-11T13:14:58.539Z,-72
2019-03-11T13:15:58.228Z,-72
2019-03-11T13:16:58.453Z,-72
2019-03-11T13:17:58.209Z,-72
2019-03-11T13:18:58.426Z,-72
2019-03-11T13:19:58.426Z,-72
2019-03-11T13:20:58.355Z,-72
2019-03-11T13:21:58.285Z,-71
2019-03-11T13:22:58.448Z,-72
2019-03-11T13:23:58.213Z,-72
2019-03-11T13:24:58.327Z,-72
2019-03-11T13:25:58.238Z,-72
2019-03-11T13:26:58.432Z,-72
2019-03-11T13:27:58.211Z,-72
2019-03-11T13:28:58.434Z,-72
2019-03-11T13:29:58.151Z,-72
2019-03-11T13:30:59.480Z,-71
2019-03-11T13:31:58.217Z,-72
2019-03-11T13:32:58.432Z,-72
2019-03-11T13:33:58.173Z,-72
2019-03-11T13:34:58.636Z,-72
2019-03-11T13:35:58.131Z,-72
2019-03-11T13:36:58.280Z,-72
2019-03-11T13:37:58.135Z,-72
2019-03-11T13:38:58.274Z,-72
2019-03-11T13:39:58.677Z,-72
2019-03-11T13:40:58.276Z,-72
2019-03-11T13:41:58.154Z,-72
2019-03-11T13:42:58.269Z,-72
2019-03-11T13:43:58.145Z,-72
2019-03-11T13:44:58.499Z,-72
2019-03-11T13:45:58.165Z,-72
2019-03-11T13:46:58.284Z,-72